sensor_id;sensor_type;location;lat;lon;timestamp;P1;durP1;ratioP1;P2;durP2;ratioP2
68176;SDS011;56478;50.982;7.032;2023-03-15T00:00:43;7.10;;;3.42;;
68176;SDS011;56478;50.982;7.032;2023-03-15T00:03:09;7.60;;;3.20;;
68176;SDS011;56478;50.982;7.032;2023-03-15T00:05:36;9.38;;;3.30;;
68176;SDS011;56478;50.982;7.032;2023-03-15T00:08:05;7.40;;;3.15;;
68176;SDS011;56478;50.982;7.032;2023-03-15T00:10:31;9.43;;;3.28;;
68176;SDS011;56478;50.982;7.032;2023-03-15T00:12:56;6.10;;;3.03;;
68176;SDS011;56478;50.982;7.032;2023-03-15T00:15:22;9.50;;;2.92;;
68176;SDS011;56478;50.982;7.032;2023-03-15T00:17:47;6.28;;;3.10;;
68176;SDS011;56478;50.982;7.032;2023-03-15T00:20:13;5.13;;;3.03;;
68176;SDS011;56478;50.982;7.032;2023-03-15T00:22:40;16.17;;;3.45;;
68176;SDS011;56478;50.982;7.032;2023-03-15T00:25:06;11.75;;;3.90;;
68176;SDS011;56478;50.982;7.032;2023-03-15T00:27:32;16.30;;;4.20;;
68176;SDS011;56478;50.982;7.032;2023-03-15T00:29:58;11.10;;;4.00;;
68176;SDS011;56478;50.982;7.032;2023-03-15T00:32:23;13.20;;;4.32;;
68176;SDS011;56478;50.982;7.032;2023-03-15T00:34:49;10.63;;;4.53;;
68176;SDS011;56478;50.982;7.032;2023-03-15T00:37:19;14.18;;;3.90;;
68176;SDS011;56478;50.982;7.032;2023-03-15T00:39:47;11.38;;;3.97;;
68176;SDS011;56478;50.982;7.032;2023-03-15T00:42:13;4.95;;;3.30;;
68176;SDS011;56478;50.982;7.032;2023-03-15T00:44:43;9.23;;;3.38;;
68176;SDS011;56478;50.982;7.032;2023-03-15T00:47:09;7.18;;;3.60;;
68176;SDS011;56478;50.982;7.032;2023-03-15T00:49:36;9.93;;;3.70;;
68176;SDS011;56478;50.982;7.032;2023-03-15T00:52:02;8.57;;;3.40;;
68176;SDS011;56478;50.982;7.032;2023-03-15T00:54:28;8.95;;;3.20;;
68176;SDS011;56478;50.982;7.032;2023-03-15T00:56:53;13.05;;;3.65;;
68176;SDS011;56478;50.982;7.032;2023-03-15T00:59:19;9.15;;;3.70;;
68176;SDS011;56478;50.982;7.032;2023-03-15T01:01:46;8.98;;;3.40;;
68176;SDS011;56478;50.982;7.032;2023-03-15T01:04:12;10.55;;;3.33;;
68176;SDS011;56478;50.982;7.032;2023-03-15T01:06:37;6.38;;;3.40;;
68176;SDS011;56478;50.982;7.032;2023-03-15T01:09:06;12.88;;;3.78;;
68176;SDS011;56478;50.982;7.032;2023-03-15T01:11:33;9.05;;;3.60;;
68176;SDS011;56478;50.982;7.032;2023-03-15T01:13:59;11.95;;;3.58;;
68176;SDS011;56478;50.982;7.032;2023-03-15T01:16:25;13.13;;;4.18;;
68176;SDS011;56478;50.982;7.032;2023-03-15T01:18:51;8.50;;;3.30;;
68176;SDS011;56478;50.982;7.032;2023-03-15T01:21:18;6.70;;;3.58;;
68176;SDS011;56478;50.982;7.032;2023-03-15T01:23:44;13.57;;;3.92;;
68176;SDS011;56478;50.982;7.032;2023-03-15T01:26:11;12.23;;;4.05;;
68176;SDS011;56478;50.982;7.032;2023-03-15T01:28:38;7.68;;;3.85;;
68176;SDS011;56478;50.982;7.032;2023-03-15T01:31:04;10.20;;;3.95;;
68176;SDS011;56478;50.982;7.032;2023-03-15T01:33:29;9.98;;;3.85;;
68176;SDS011;56478;50.982;7.032;2023-03-15T01:35:59;7.32;;;3.97;;
68176;SDS011;56478;50.982;7.032;2023-03-15T01:38:26;14.25;;;3.88;;
68176;SDS011;56478;50.982;7.032;2023-03-15T01:40:52;7.53;;;4.03;;
68176;SDS011;56478;50.982;7.032;2023-03-15T01:43:25;14.55;;;5.30;;
68176;SDS011;56478;50.982;7.032;2023-03-15T01:48:37;12.93;;;4.60;;
68176;SDS011;56478;50.982;7.032;2023-03-15T01:51:19;9.10;;;4.53;;
68176;SDS011;56478;50.982;7.032;2023-03-15T01:53:58;9.43;;;4.25;;
68176;SDS011;56478;50.982;7.032;2023-03-15T01:56:28;7.63;;;4.32;;
68176;SDS011;56478;50.982;7.032;2023-03-15T01:58:56;7.20;;;4.00;;
68176;SDS011;56478;50.982;7.032;2023-03-15T02:01:23;5.88;;;3.70;;
68176;SDS011;56478;50.982;7.032;2023-03-15T02:03:51;6.03;;;3.20;;
68176;SDS011;56478;50.982;7.032;2023-03-15T02:06:26;7.13;;;3.20;;
68176;SDS011;56478;50.982;7.032;2023-03-15T02:08:54;4.25;;;2.70;;
68176;SDS011;56478;50.982;7.032;2023-03-15T02:11:23;5.22;;;2.83;;
68176;SDS011;56478;50.982;7.032;2023-03-15T02:13:49;6.50;;;3.08;;
68176;SDS011;56478;50.982;7.032;2023-03-15T02:16:17;3.88;;;2.75;;
68176;SDS011;56478;50.982;7.032;2023-03-15T02:18:43;4.47;;;2.80;;
68176;SDS011;56478;50.982;7.032;2023-03-15T02:21:12;5.85;;;2.78;;
68176;SDS011;56478;50.982;7.032;2023-03-15T02:23:38;6.13;;;3.15;;
68176;SDS011;56478;50.982;7.032;2023-03-15T02:28:35;4.07;;;3.13;;
68176;SDS011;56478;50.982;7.032;2023-03-15T02:31:01;3.70;;;3.13;;
68176;SDS011;56478;50.982;7.032;2023-03-15T02:33:29;3.70;;;3.13;;
68176;SDS011;56478;50.982;7.032;2023-03-15T02:38:54;3.58;;;3.00;;
68176;SDS011;56478;50.982;7.032;2023-03-15T02:41:23;3.95;;;3.10;;
68176;SDS011;56478;50.982;7.032;2023-03-15T02:44:01;4.32;;;3.40;;
68176;SDS011;56478;50.982;7.032;2023-03-15T02:46:58;4.73;;;3.47;;
68176;SDS011;56478;50.982;7.032;2023-03-15T02:49:29;4.90;;;3.45;;
68176;SDS011;56478;50.982;7.032;2023-03-15T02:51:57;3.47;;;2.90;;
68176;SDS011;56478;50.982;7.032;2023-03-15T02:54:22;3.47;;;2.67;;
68176;SDS011;56478;50.982;7.032;2023-03-15T02:56:48;4.82;;;3.40;;
68176;SDS011;56478;50.982;7.032;2023-03-15T02:59:14;4.97;;;3.40;;
68176;SDS011;56478;50.982;7.032;2023-03-15T03:01:39;5.97;;;3.25;;
68176;SDS011;56478;50.982;7.032;2023-03-15T03:04:04;2.90;;;2.65;;
68176;SDS011;56478;50.982;7.032;2023-03-15T03:06:30;4.35;;;3.00;;
68176;SDS011;56478;50.982;7.032;2023-03-15T03:08:56;3.97;;;3.05;;
68176;SDS011;56478;50.982;7.032;2023-03-15T03:11:21;2.65;;;2.40;;
68176;SDS011;56478;50.982;7.032;2023-03-15T03:13:47;3.00;;;2.20;;
68176;SDS011;56478;50.982;7.032;2023-03-15T03:16:12;3.00;;;2.35;;
68176;SDS011;56478;50.982;7.032;2023-03-15T03:18:38;5.60;;;2.35;;
68176;SDS011;56478;50.982;7.032;2023-03-15T03:21:05;2.83;;;2.33;;
68176;SDS011;56478;50.982;7.032;2023-03-15T03:23:32;2.72;;;2.40;;
68176;SDS011;56478;50.982;7.032;2023-03-15T03:25:59;2.95;;;2.40;;
68176;SDS011;56478;50.982;7.032;2023-03-15T03:28:26;2.33;;;2.10;;
68176;SDS011;56478;50.982;7.032;2023-03-15T03:30:53;2.22;;;2.05;;
68176;SDS011;56478;50.982;7.032;2023-03-15T03:33:20;2.40;;;2.20;;
68176;SDS011;56478;50.982;7.032;2023-03-15T03:35:47;2.55;;;2.17;;
68176;SDS011;56478;50.982;7.032;2023-03-15T03:38:13;2.70;;;2.50;;
68176;SDS011;56478;50.982;7.032;2023-03-15T03:40:39;5.10;;;2.20;;
68176;SDS011;56478;50.982;7.032;2023-03-15T03:43:05;3.03;;;2.20;;
68176;SDS011;56478;50.982;7.032;2023-03-15T03:45:32;2.40;;;2.20;;
68176;SDS011;56478;50.982;7.032;2023-03-15T03:47:57;3.28;;;2.45;;
68176;SDS011;56478;50.982;7.032;2023-03-15T03:50:23;2.53;;;2.30;;
68176;SDS011;56478;50.982;7.032;2023-03-15T03:52:48;3.47;;;3.08;;
68176;SDS011;56478;50.982;7.032;2023-03-15T03:55:14;3.22;;;2.92;;
68176;SDS011;56478;50.982;7.032;2023-03-15T03:57:40;3.53;;;3.22;;
68176;SDS011;56478;50.982;7.032;2023-03-15T04:00:06;3.88;;;3.45;;
68176;SDS011;56478;50.982;7.032;2023-03-15T04:02:38;4.88;;;3.25;;
68176;SDS011;56478;50.982;7.032;2023-03-15T04:05:07;3.67;;;3.37;;
68176;SDS011;56478;50.982;7.032;2023-03-15T04:07:33;5.13;;;3.47;;
68176;SDS011;56478;50.982;7.032;2023-03-15T04:09:59;3.95;;;3.38;;
68176;SDS011;56478;50.982;7.032;2023-03-15T04:12:26;4.60;;;3.50;;
68176;SDS011;56478;50.982;7.032;2023-03-15T04:14:52;5.00;;;3.45;;
68176;SDS011;56478;50.982;7.032;2023-03-15T04:17:17;3.55;;;3.25;;
68176;SDS011;56478;50.982;7.032;2023-03-15T04:19:43;4.82;;;3.50;;
68176;SDS011;56478;50.982;7.032;2023-03-15T04:22:11;4.57;;;3.28;;
68176;SDS011;56478;50.982;7.032;2023-03-15T04:24:40;3.80;;;3.50;;
68176;SDS011;56478;50.982;7.032;2023-03-15T04:27:06;4.18;;;3.67;;
68176;SDS011;56478;50.982;7.032;2023-03-15T04:29:32;4.22;;;3.60;;
68176;SDS011;56478;50.982;7.032;2023-03-15T04:31:57;4.07;;;3.50;;
68176;SDS011;56478;50.982;7.032;2023-03-15T04:34:29;4.60;;;3.40;;
68176;SDS011;56478;50.982;7.032;2023-03-15T04:36:55;4.75;;;3.63;;
68176;SDS011;56478;50.982;7.032;2023-03-15T04:39:21;4.20;;;3.60;;
68176;SDS011;56478;50.982;7.032;2023-03-15T04:41:47;4.00;;;3.58;;
68176;SDS011;56478;50.982;7.032;2023-03-15T04:44:13;4.10;;;3.70;;
68176;SDS011;56478;50.982;7.032;2023-03-15T04:46:40;4.80;;;4.03;;
68176;SDS011;56478;50.982;7.032;2023-03-15T04:49:08;4.47;;;4.00;;
68176;SDS011;56478;50.982;7.032;2023-03-15T04:51:34;6.15;;;3.67;;
68176;SDS011;56478;50.982;7.032;2023-03-15T04:54:00;4.65;;;3.88;;
68176;SDS011;56478;50.982;7.032;2023-03-15T04:56:26;4.32;;;3.85;;
68176;SDS011;56478;50.982;7.032;2023-03-15T04:58:52;4.53;;;4.03;;
68176;SDS011;56478;50.982;7.032;2023-03-15T05:01:18;5.47;;;4.05;;
68176;SDS011;56478;50.982;7.032;2023-03-15T05:03:44;4.28;;;3.80;;
68176;SDS011;56478;50.982;7.032;2023-03-15T05:06:09;4.63;;;4.10;;
68176;SDS011;56478;50.982;7.032;2023-03-15T05:08:35;4.35;;;3.90;;
68176;SDS011;56478;50.982;7.032;2023-03-15T05:11:01;4.30;;;3.90;;
68176;SDS011;56478;50.982;7.032;2023-03-15T05:13:28;5.85;;;4.10;;
68176;SDS011;56478;50.982;7.032;2023-03-15T05:15:53;5.38;;;4.00;;
68176;SDS011;56478;50.982;7.032;2023-03-15T05:18:19;5.63;;;4.07;;
68176;SDS011;56478;50.982;7.032;2023-03-15T05:20:46;4.32;;;3.92;;
68176;SDS011;56478;50.982;7.032;2023-03-15T05:23:11;4.82;;;4.32;;
68176;SDS011;56478;50.982;7.032;2023-03-15T05:25:38;4.40;;;3.83;;
68176;SDS011;56478;50.982;7.032;2023-03-15T05:28:04;4.40;;;3.97;;
68176;SDS011;56478;50.982;7.032;2023-03-15T05:30:30;6.07;;;3.92;;
68176;SDS011;56478;50.982;7.032;2023-03-15T05:32:56;4.60;;;4.00;;
68176;SDS011;56478;50.982;7.032;2023-03-15T05:35:22;4.40;;;3.97;;
68176;SDS011;56478;50.982;7.032;2023-03-15T05:37:50;4.53;;;3.97;;
68176;SDS011;56478;50.982;7.032;2023-03-15T05:40:16;5.07;;;4.25;;
68176;SDS011;56478;50.982;7.032;2023-03-15T05:42:42;5.93;;;4.15;;
68176;SDS011;56478;50.982;7.032;2023-03-15T05:45:08;5.40;;;4.32;;
68176;SDS011;56478;50.982;7.032;2023-03-15T05:47:34;4.78;;;4.28;;
68176;SDS011;56478;50.982;7.032;2023-03-15T05:49:59;4.50;;;4.07;;
68176;SDS011;56478;50.982;7.032;2023-03-15T05:52:25;4.50;;;4.10;;
68176;SDS011;56478;50.982;7.032;2023-03-15T05:54:50;5.05;;;4.47;;
68176;SDS011;56478;50.982;7.032;2023-03-15T05:57:16;4.63;;;4.18;;
68176;SDS011;56478;50.982;7.032;2023-03-15T05:59:41;6.35;;;4.68;;
68176;SDS011;56478;50.982;7.032;2023-03-15T06:02:07;7.10;;;4.90;;
68176;SDS011;56478;50.982;7.032;2023-03-15T06:04:32;5.07;;;4.57;;
68176;SDS011;56478;50.982;7.032;2023-03-15T06:06:58;5.75;;;5.20;;
68176;SDS011;56478;50.982;7.032;2023-03-15T06:09:23;5.82;;;5.05;;
68176;SDS011;56478;50.982;7.032;2023-03-15T06:11:49;5.57;;;5.07;;
68176;SDS011;56478;50.982;7.032;2023-03-15T06:14:15;6.47;;;5.60;;
68176;SDS011;56478;50.982;7.032;2023-03-15T06:16:40;7.35;;;5.30;;
68176;SDS011;56478;50.982;7.032;2023-03-15T06:19:06;7.45;;;5.80;;
68176;SDS011;56478;50.982;7.032;2023-03-15T06:21:31;6.57;;;5.97;;
68176;SDS011;56478;50.982;7.032;2023-03-15T06:23:57;6.57;;;5.97;;
68176;SDS011;56478;50.982;7.032;2023-03-15T06:26:22;6.75;;;6.05;;
68176;SDS011;56478;50.982;7.032;2023-03-15T06:28:48;7.13;;;6.10;;
68176;SDS011;56478;50.982;7.032;2023-03-15T06:31:13;10.20;;;6.70;;
68176;SDS011;56478;50.982;7.032;2023-03-15T06:33:39;7.50;;;6.70;;
68176;SDS011;56478;50.982;7.032;2023-03-15T06:36:05;12.15;;;8.30;;
68176;SDS011;56478;50.982;7.032;2023-03-15T06:38:31;9.20;;;6.97;;
68176;SDS011;56478;50.982;7.032;2023-03-15T06:40:57;10.48;;;7.40;;
68176;SDS011;56478;50.982;7.032;2023-03-15T06:43:26;7.95;;;7.15;;
68176;SDS011;56478;50.982;7.032;2023-03-15T06:45:52;9.13;;;7.45;;
68176;SDS011;56478;50.982;7.032;2023-03-15T06:48:20;9.95;;;7.72;;
68176;SDS011;56478;50.982;7.032;2023-03-15T06:50:46;8.93;;;7.97;;
68176;SDS011;56478;50.982;7.032;2023-03-15T06:53:12;9.13;;;8.00;;
68176;SDS011;56478;50.982;7.032;2023-03-15T06:55:38;9.20;;;7.95;;
68176;SDS011;56478;50.982;7.032;2023-03-15T06:58:03;11.77;;;8.65;;
68176;SDS011;56478;50.982;7.032;2023-03-15T07:00:29;11.15;;;8.70;;
68176;SDS011;56478;50.982;7.032;2023-03-15T07:02:55;11.32;;;9.10;;
68176;SDS011;56478;50.982;7.032;2023-03-15T07:05:20;9.75;;;8.38;;
68176;SDS011;56478;50.982;7.032;2023-03-15T07:07:46;9.15;;;8.07;;
68176;SDS011;56478;50.982;7.032;2023-03-15T07:10:12;9.02;;;7.53;;
68176;SDS011;56478;50.982;7.032;2023-03-15T07:12:37;8.65;;;7.72;;
68176;SDS011;56478;50.982;7.032;2023-03-15T07:15:03;9.40;;;7.55;;
68176;SDS011;56478;50.982;7.032;2023-03-15T07:17:29;9.95;;;7.75;;
68176;SDS011;56478;50.982;7.032;2023-03-15T07:19:54;8.40;;;7.25;;
68176;SDS011;56478;50.982;7.032;2023-03-15T07:22:20;9.10;;;7.53;;
68176;SDS011;56478;50.982;7.032;2023-03-15T07:24:47;8.70;;;7.60;;
68176;SDS011;56478;50.982;7.032;2023-03-15T07:27:13;8.43;;;7.60;;
68176;SDS011;56478;50.982;7.032;2023-03-15T07:29:38;10.45;;;7.18;;
68176;SDS011;56478;50.982;7.032;2023-03-15T07:32:05;8.95;;;7.38;;
68176;SDS011;56478;50.982;7.032;2023-03-15T07:34:31;10.52;;;7.90;;
68176;SDS011;56478;50.982;7.032;2023-03-15T07:36:57;8.98;;;7.05;;
68176;SDS011;56478;50.982;7.032;2023-03-15T07:39:22;8.55;;;7.13;;
68176;SDS011;56478;50.982;7.032;2023-03-15T07:41:49;9.00;;;7.18;;
68176;SDS011;56478;50.982;7.032;2023-03-15T07:44:16;8.27;;;7.47;;
68176;SDS011;56478;50.982;7.032;2023-03-15T07:46:41;9.73;;;7.38;;
68176;SDS011;56478;50.982;7.032;2023-03-15T07:49:07;8.05;;;7.25;;
68176;SDS011;56478;50.982;7.032;2023-03-15T07:51:32;10.63;;;7.72;;
68176;SDS011;56478;50.982;7.032;2023-03-15T07:53:58;9.70;;;8.30;;
68176;SDS011;56478;50.982;7.032;2023-03-15T07:56:23;10.15;;;8.25;;
68176;SDS011;56478;50.982;7.032;2023-03-15T07:58:49;11.18;;;8.43;;
68176;SDS011;56478;50.982;7.032;2023-03-15T08:01:14;12.13;;;9.10;;
68176;SDS011;56478;50.982;7.032;2023-03-15T08:03:40;8.55;;;7.45;;
68176;SDS011;56478;50.982;7.032;2023-03-15T08:06:06;14.77;;;7.63;;
68176;SDS011;56478;50.982;7.032;2023-03-15T08:08:32;10.57;;;8.07;;
68176;SDS011;56478;50.982;7.032;2023-03-15T08:10:57;8.38;;;7.45;;
68176;SDS011;56478;50.982;7.032;2023-03-15T08:13:23;8.50;;;7.47;;
68176;SDS011;56478;50.982;7.032;2023-03-15T08:15:49;8.43;;;7.63;;
68176;SDS011;56478;50.982;7.032;2023-03-15T08:18:15;10.75;;;7.88;;
68176;SDS011;56478;50.982;7.032;2023-03-15T08:20:41;10.43;;;7.30;;
68176;SDS011;56478;50.982;7.032;2023-03-15T08:23:07;10.82;;;7.47;;
68176;SDS011;56478;50.982;7.032;2023-03-15T08:25:33;9.57;;;7.47;;
68176;SDS011;56478;50.982;7.032;2023-03-15T08:28:00;8.77;;;7.50;;
68176;SDS011;56478;50.982;7.032;2023-03-15T08:30:26;10.13;;;7.05;;
68176;SDS011;56478;50.982;7.032;2023-03-15T08:32:51;11.18;;;7.20;;
68176;SDS011;56478;50.982;7.032;2023-03-15T08:35:18;9.65;;;7.15;;
68176;SDS011;56478;50.982;7.032;2023-03-15T08:37:45;7.57;;;6.80;;
68176;SDS011;56478;50.982;7.032;2023-03-15T08:40:12;10.30;;;7.45;;
68176;SDS011;56478;50.982;7.032;2023-03-15T08:42:39;10.57;;;6.80;;
68176;SDS011;56478;50.982;7.032;2023-03-15T08:45:05;8.68;;;6.93;;
68176;SDS011;56478;50.982;7.032;2023-03-15T08:47:35;8.55;;;7.03;;
68176;SDS011;56478;50.982;7.032;2023-03-15T08:50:02;11.32;;;6.97;;
68176;SDS011;56478;50.982;7.032;2023-03-15T08:52:30;8.17;;;6.00;;
68176;SDS011;56478;50.982;7.032;2023-03-15T08:54:56;11.18;;;6.40;;
68176;SDS011;56478;50.982;7.032;2023-03-15T08:57:21;9.70;;;6.32;;
68176;SDS011;56478;50.982;7.032;2023-03-15T08:59:50;6.13;;;5.53;;
68176;SDS011;56478;50.982;7.032;2023-03-15T09:02:16;7.68;;;5.63;;
68176;SDS011;56478;50.982;7.032;2023-03-15T09:04:42;8.60;;;5.60;;
68176;SDS011;56478;50.982;7.032;2023-03-15T09:07:08;8.30;;;5.78;;
68176;SDS011;56478;50.982;7.032;2023-03-15T09:09:33;7.28;;;6.10;;
68176;SDS011;56478;50.982;7.032;2023-03-15T09:11:59;7.32;;;5.80;;
68176;SDS011;56478;50.982;7.032;2023-03-15T09:14:24;6.82;;;6.13;;
68176;SDS011;56478;50.982;7.032;2023-03-15T09:16:50;7.10;;;6.35;;
68176;SDS011;56478;50.982;7.032;2023-03-15T09:19:16;7.10;;;6.35;;
68176;SDS011;56478;50.982;7.032;2023-03-15T09:21:41;8.48;;;6.07;;
68176;SDS011;56478;50.982;7.032;2023-03-15T09:24:09;7.10;;;6.40;;
68176;SDS011;56478;50.982;7.032;2023-03-15T09:26:35;6.47;;;5.30;;
68176;SDS011;56478;50.982;7.032;2023-03-15T09:29:00;8.90;;;5.47;;
68176;SDS011;56478;50.982;7.032;2023-03-15T09:31:26;8.02;;;5.38;;
68176;SDS011;56478;50.982;7.032;2023-03-15T09:33:51;9.02;;;5.35;;
68176;SDS011;56478;50.982;7.032;2023-03-15T09:36:17;7.10;;;4.43;;
68176;SDS011;56478;50.982;7.032;2023-03-15T09:38:43;5.93;;;3.85;;
68176;SDS011;56478;50.982;7.032;2023-03-15T09:41:32;5.70;;;3.55;;
68176;SDS011;56478;50.982;7.032;2023-03-15T09:44:31;4.57;;;3.13;;
68176;SDS011;56478;50.982;7.032;2023-03-15T09:55:24;4.75;;;3.40;;
68176;SDS011;56478;50.982;7.032;2023-03-15T10:00:27;3.40;;;3.10;;
68176;SDS011;56478;50.982;7.032;2023-03-15T10:03:05;7.10;;;3.78;;
68176;SDS011;56478;50.982;7.032;2023-03-15T10:08:12;6.20;;;3.90;;
68176;SDS011;56478;50.982;7.032;2023-03-15T10:10:55;6.10;;;3.30;;
68176;SDS011;56478;50.982;7.032;2023-03-15T10:21:31;3.63;;;3.20;;
68176;SDS011;56478;50.982;7.032;2023-03-15T10:24:18;3.33;;;2.90;;
68176;SDS011;56478;50.982;7.032;2023-03-15T10:26:46;3.60;;;3.30;;
68176;SDS011;56478;50.982;7.032;2023-03-15T10:29:15;5.37;;;3.57;;
68176;SDS011;56478;50.982;7.032;2023-03-15T10:31:45;5.63;;;3.38;;
68176;SDS011;56478;50.982;7.032;2023-03-15T10:34:11;5.00;;;3.50;;
68176;SDS011;56478;50.982;7.032;2023-03-15T10:36:45;6.53;;;3.25;;
68176;SDS011;56478;50.982;7.032;2023-03-15T10:39:14;5.43;;;2.95;;
68176;SDS011;56478;50.982;7.032;2023-03-15T10:41:41;5.45;;;3.20;;
68176;SDS011;56478;50.982;7.032;2023-03-15T10:44:19;5.63;;;3.13;;
68176;SDS011;56478;50.982;7.032;2023-03-15T10:47:00;6.95;;;3.58;;
68176;SDS011;56478;50.982;7.032;2023-03-15T10:49:34;9.00;;;3.25;;
68176;SDS011;56478;50.982;7.032;2023-03-15T10:52:01;3.90;;;3.28;;
68176;SDS011;56478;50.982;7.032;2023-03-15T10:54:27;4.60;;;3.22;;
68176;SDS011;56478;50.982;7.032;2023-03-15T10:59:31;5.35;;;3.00;;
68176;SDS011;56478;50.982;7.032;2023-03-15T11:04:39;8.07;;;3.25;;
68176;SDS011;56478;50.982;7.032;2023-03-15T11:07:06;5.47;;;2.90;;
68176;SDS011;56478;50.982;7.032;2023-03-15T11:09:39;5.60;;;2.67;;
68176;SDS011;56478;50.982;7.032;2023-03-15T11:12:14;4.97;;;3.03;;
68176;SDS011;56478;50.982;7.032;2023-03-15T11:14:47;3.70;;;2.65;;
68176;SDS011;56478;50.982;7.032;2023-03-15T11:17:16;4.47;;;2.60;;
68176;SDS011;56478;50.982;7.032;2023-03-15T11:19:53;4.82;;;2.75;;
68176;SDS011;56478;50.982;7.032;2023-03-15T11:22:21;6.28;;;2.55;;
68176;SDS011;56478;50.982;7.032;2023-03-15T11:24:47;5.07;;;2.53;;
68176;SDS011;56478;50.982;7.032;2023-03-15T11:27:14;6.78;;;2.80;;
68176;SDS011;56478;50.982;7.032;2023-03-15T11:29:42;5.25;;;2.45;;
68176;SDS011;56478;50.982;7.032;2023-03-15T11:32:16;4.38;;;2.50;;
68176;SDS011;56478;50.982;7.032;2023-03-15T11:37:44;6.43;;;2.28;;
68176;SDS011;56478;50.982;7.032;2023-03-15T11:42:53;5.10;;;2.35;;
68176;SDS011;56478;50.982;7.032;2023-03-15T11:48:27;4.20;;;1.95;;
68176;SDS011;56478;50.982;7.032;2023-03-15T11:51:05;3.75;;;1.83;;
68176;SDS011;56478;50.982;7.032;2023-03-15T11:53:36;4.85;;;2.17;;
68176;SDS011;56478;50.982;7.032;2023-03-15T11:56:20;3.72;;;1.85;;
68176;SDS011;56478;50.982;7.032;2023-03-15T12:01:28;4.72;;;2.10;;
68176;SDS011;56478;50.982;7.032;2023-03-15T12:06:56;3.58;;;1.85;;
68176;SDS011;56478;50.982;7.032;2023-03-15T12:11:56;5.25;;;1.80;;
68176;SDS011;56478;50.982;7.032;2023-03-15T12:14:34;3.60;;;1.90;;
68176;SDS011;56478;50.982;7.032;2023-03-15T12:19:59;5.32;;;2.05;;
68176;SDS011;56478;50.982;7.032;2023-03-15T12:22:34;2.63;;;2.13;;
68176;SDS011;56478;50.982;7.032;2023-03-15T12:25:06;3.92;;;1.80;;
68176;SDS011;56478;50.982;7.032;2023-03-15T12:27:37;6.85;;;1.90;;
68176;SDS011;56478;50.982;7.032;2023-03-15T12:30:19;4.60;;;2.28;;
68176;SDS011;56478;50.982;7.032;2023-03-15T12:32:47;4.05;;;2.00;;
68176;SDS011;56478;50.982;7.032;2023-03-15T12:35:16;6.03;;;2.05;;
68176;SDS011;56478;50.982;7.032;2023-03-15T12:37:46;3.35;;;1.83;;
68176;SDS011;56478;50.982;7.032;2023-03-15T12:47:44;3.92;;;2.47;;
68176;SDS011;56478;50.982;7.032;2023-03-15T12:53:53;5.13;;;2.47;;
68176;SDS011;56478;50.982;7.032;2023-03-15T12:58:41;3.00;;;2.13;;
68176;SDS011;56478;50.982;7.032;2023-03-15T13:01:10;2.80;;;2.00;;
68176;SDS011;56478;50.982;7.032;2023-03-15T13:03:40;3.03;;;1.90;;
68176;SDS011;56478;50.982;7.032;2023-03-15T13:09:10;3.28;;;2.00;;
68176;SDS011;56478;50.982;7.032;2023-03-15T13:19:43;2.53;;;1.92;;
68176;SDS011;56478;50.982;7.032;2023-03-15T13:23:14;3.35;;;1.80;;
68176;SDS011;56478;50.982;7.032;2023-03-15T13:25:28;2.10;;;1.80;;
68176;SDS011;56478;50.982;7.032;2023-03-15T13:27:58;3.78;;;2.00;;
68176;SDS011;56478;50.982;7.032;2023-03-15T13:30:32;4.30;;;1.90;;
68176;SDS011;56478;50.982;7.032;2023-03-15T13:35:45;4.85;;;1.98;;
68176;SDS011;56478;50.982;7.032;2023-03-15T13:40:59;3.22;;;1.90;;
68176;SDS011;56478;50.982;7.032;2023-03-15T13:43:37;2.92;;;1.80;;
68176;SDS011;56478;50.982;7.032;2023-03-15T13:46:03;3.88;;;1.90;;
68176;SDS011;56478;50.982;7.032;2023-03-15T13:48:31;6.45;;;1.95;;
68176;SDS011;56478;50.982;7.032;2023-03-15T13:53:32;3.17;;;1.75;;
68176;SDS011;56478;50.982;7.032;2023-03-15T13:56:00;5.47;;;1.63;;
68176;SDS011;56478;50.982;7.032;2023-03-15T13:58:26;4.55;;;2.25;;
68176;SDS011;56478;50.982;7.032;2023-03-15T14:00:59;2.13;;;1.80;;
68176;SDS011;56478;50.982;7.032;2023-03-15T14:03:28;6.28;;;1.80;;
68176;SDS011;56478;50.982;7.032;2023-03-15T14:05:54;10.10;;;2.05;;
68176;SDS011;56478;50.982;7.032;2023-03-15T14:08:26;1.77;;;1.67;;
68176;SDS011;56478;50.982;7.032;2023-03-15T14:10:56;2.67;;;1.48;;
68176;SDS011;56478;50.982;7.032;2023-03-15T14:15:50;1.88;;;1.70;;
68176;SDS011;56478;50.982;7.032;2023-03-15T14:18:22;2.88;;;1.98;;
68176;SDS011;56478;50.982;7.032;2023-03-15T14:23:22;1.63;;;1.30;;
68176;SDS011;56478;50.982;7.032;2023-03-15T14:25:50;3.55;;;1.75;;
68176;SDS011;56478;50.982;7.032;2023-03-15T14:28:20;3.72;;;1.70;;
68176;SDS011;56478;50.982;7.032;2023-03-15T14:30:55;2.75;;;1.60;;
68176;SDS011;56478;50.982;7.032;2023-03-15T14:33:32;5.10;;;1.73;;
68176;SDS011;56478;50.982;7.032;2023-03-15T14:36:20;2.95;;;1.70;;
68176;SDS011;56478;50.982;7.032;2023-03-15T14:38:55;3.85;;;1.60;;
68176;SDS011;56478;50.982;7.032;2023-03-15T14:41:27;3.17;;;1.70;;
68176;SDS011;56478;50.982;7.032;2023-03-15T14:43:58;2.10;;;1.73;;
68176;SDS011;56478;50.982;7.032;2023-03-15T14:46:25;5.22;;;1.73;;
68176;SDS011;56478;50.982;7.032;2023-03-15T14:48:51;4.05;;;2.00;;
68176;SDS011;56478;50.982;7.032;2023-03-15T14:51:18;2.97;;;1.80;;
68176;SDS011;56478;50.982;7.032;2023-03-15T14:53:45;2.13;;;1.60;;
68176;SDS011;56478;50.982;7.032;2023-03-15T14:56:15;1.80;;;1.70;;
68176;SDS011;56478;50.982;7.032;2023-03-15T14:58:41;5.97;;;2.00;;
68176;SDS011;56478;50.982;7.032;2023-03-15T15:01:09;2.63;;;2.10;;
68176;SDS011;56478;50.982;7.032;2023-03-15T15:03:41;2.88;;;1.50;;
68176;SDS011;56478;50.982;7.032;2023-03-15T15:06:13;2.25;;;1.58;;
68176;SDS011;56478;50.982;7.032;2023-03-15T15:08:40;3.83;;;1.60;;
68176;SDS011;56478;50.982;7.032;2023-03-15T15:11:09;1.63;;;1.40;;
68176;SDS011;56478;50.982;7.032;2023-03-15T15:13:35;2.17;;;1.40;;
68176;SDS011;56478;50.982;7.032;2023-03-15T15:16:02;3.42;;;1.30;;
68176;SDS011;56478;50.982;7.032;2023-03-15T15:18:31;2.83;;;1.30;;
68176;SDS011;56478;50.982;7.032;2023-03-15T15:21:00;4.40;;;1.65;;
68176;SDS011;56478;50.982;7.032;2023-03-15T15:23:28;1.65;;;1.55;;
68176;SDS011;56478;50.982;7.032;2023-03-15T15:25:57;3.05;;;1.60;;
68176;SDS011;56478;50.982;7.032;2023-03-15T15:28:27;5.22;;;1.50;;
68176;SDS011;56478;50.982;7.032;2023-03-15T15:30:54;6.10;;;1.55;;
68176;SDS011;56478;50.982;7.032;2023-03-15T15:33:20;3.45;;;1.95;;
68176;SDS011;56478;50.982;7.032;2023-03-15T15:35:48;4.30;;;1.48;;
68176;SDS011;56478;50.982;7.032;2023-03-15T15:38:18;5.50;;;1.40;;
68176;SDS011;56478;50.982;7.032;2023-03-15T15:40:45;3.38;;;1.50;;
68176;SDS011;56478;50.982;7.032;2023-03-15T15:43:10;3.03;;;1.50;;
68176;SDS011;56478;50.982;7.032;2023-03-15T15:45:37;4.60;;;1.58;;
68176;SDS011;56478;50.982;7.032;2023-03-15T15:48:03;2.97;;;1.63;;
68176;SDS011;56478;50.982;7.032;2023-03-15T15:50:30;2.38;;;1.70;;
68176;SDS011;56478;50.982;7.032;2023-03-15T15:52:57;5.88;;;1.60;;
68176;SDS011;56478;50.982;7.032;2023-03-15T15:55:25;1.75;;;1.48;;
68176;SDS011;56478;50.982;7.032;2023-03-15T16:00:20;1.58;;;1.48;;
68176;SDS011;56478;50.982;7.032;2023-03-15T16:02:48;1.83;;;1.40;;
68176;SDS011;56478;50.982;7.032;2023-03-15T16:05:16;8.23;;;1.85;;
68176;SDS011;56478;50.982;7.032;2023-03-15T16:07:42;3.22;;;1.65;;
68176;SDS011;56478;50.982;7.032;2023-03-15T16:10:09;1.77;;;1.60;;
68176;SDS011;56478;50.982;7.032;2023-03-15T16:12:43;5.55;;;1.60;;
68176;SDS011;56478;50.982;7.032;2023-03-15T16:15:10;3.03;;;1.20;;
68176;SDS011;56478;50.982;7.032;2023-03-15T16:17:36;2.80;;;1.52;;
68176;SDS011;56478;50.982;7.032;2023-03-15T16:20:03;5.40;;;1.90;;
68176;SDS011;56478;50.982;7.032;2023-03-15T16:22:33;3.83;;;2.13;;
68176;SDS011;56478;50.982;7.032;2023-03-15T16:25:01;1.83;;;1.55;;